createdAt,value
2023-03-26T00:06:46.093Z,97441.55
2023-03-26T00:10:18.119Z,97440.96
2023-03-26T00:14:33.058Z,97419.67
2023-03-26T00:18:25.624Z,97382.17
2023-03-26T00:22:19.469Z,97362.17
2023-03-26T00:26:01.153Z,97379.92
2023-03-26T00:30:01.487Z,97395.59
2023-03-26T00:34:24.288Z,97375.31
2023-03-26T00:38:23.536Z,97404.70
2023-03-26T00:42:56.199Z,97427.71
2023-03-26T00:46:38.314Z,97434.67
2023-03-26T00:50:30.516Z,97415.87
2023-03-26T00:54:21.236Z,97419.50
2023-03-26T01:02:29.929Z,97461.85
2023-03-26T01:06:57.634Z,97483.23
2023-03-26T01:11:16.173Z,97503.34
2023-03-26T01:15:07.157Z,97523.69
2023-03-26T01:18:56.717Z,97553.09
2023-03-26T01:22:31.741Z,97550.43
2023-03-26T01:26:21.958Z,97533.48
2023-03-26T01:30:05.453Z,97536.23
2023-03-26T01:34:12.597Z,97553.79
2023-03-26T01:42:54.351Z,97527.20
2023-03-26T01:46:55.084Z,97569.68
2023-03-26T01:50:54.099Z,97580.62
2023-03-26T01:59:19.650Z,97574.88
2023-03-26T02:07:51.441Z,97606.73
2023-03-26T02:12:11.549Z,97595.74
2023-03-26T02:15:53.366Z,97603.02
2023-03-26T02:19:47.730Z,97586.52
2023-03-26T02:23:40.207Z,97593.13
2023-03-26T02:27:29.629Z,97577.06
2023-03-26T02:31:26.840Z,97599.29
2023-03-26T02:35:28.647Z,97620.16
2023-03-26T02:39:05.347Z,97670.54
2023-03-26T02:43:08.973Z,97700.05
2023-03-26T02:47:28.347Z,97754.99
2023-03-26T02:51:28.160Z,97777.34
2023-03-26T02:55:47.650Z,97760.41
2023-03-26T02:59:41.012Z,97739.27
2023-03-26T03:03:52.768Z,97715.86
2023-03-26T03:07:38.836Z,97703.85
2023-03-26T03:11:33.922Z,97680.84
2023-03-26T03:15:28.833Z,97699.04
2023-03-26T03:19:53.236Z,97690.14
2023-03-26T03:28:25.541Z,97664.19
2023-03-26T03:32:29.369Z,97627.67
2023-03-26T03:36:34.802Z,97638.89
2023-03-26T03:40:48.983Z,97690.55
2023-03-26T03:44:38.440Z,97696.02
2023-03-26T03:48:34.644Z,97688.60
2023-03-26T03:52:41.906Z,97696.00
2023-03-26T03:57:08.421Z,97689.61
2023-03-26T04:01:26.542Z,97641.23
2023-03-26T04:05:16.986Z,97623.98
2023-03-26T04:09:08.129Z,97600.40
2023-03-26T04:13:08.844Z,97597.80
2023-03-26T04:16:58.381Z,97603.73
2023-03-26T04:20:48.360Z,97599.33
2023-03-26T04:24:04.986Z,97547.66
2023-03-26T04:27:42.199Z,97529.69
2023-03-26T04:31:52.912Z,97546.80
2023-03-26T04:35:55.889Z,97545.00
2023-03-26T04:39:38.027Z,97577.65
2023-03-26T04:43:29.033Z,97580.92
2023-03-26T04:47:55.008Z,97613.79
2023-03-26T04:51:46.494Z,97674.38
2023-03-26T04:55:52.391Z,97700.66
2023-03-26T05:00:00.270Z,97763.95
2023-03-26T05:03:56.926Z,97814.78
2023-03-26T05:07:30.403Z,97793.05
2023-03-26T05:11:35.782Z,97832.50
2023-03-26T05:15:30.014Z,97830.69
2023-03-26T05:24:42.264Z,97847.66
2023-03-26T05:28:39.893Z,97928.23
2023-03-26T05:32:37.462Z,97906.77
2023-03-26T05:36:31.995Z,97901.28
2023-03-26T05:40:21.931Z,97889.38
2023-03-26T05:48:20.579Z,97882.59
2023-03-26T05:52:20.625Z,97846.69
2023-03-26T05:56:18.548Z,97830.06
2023-03-26T06:00:06.575Z,97794.27
2023-03-26T06:04:07.565Z,97793.21
2023-03-26T06:07:57.881Z,97795.81
2023-03-26T06:11:54.523Z,97770.33
2023-03-26T06:15:48.734Z,97722.26
2023-03-26T06:20:20.465Z,97706.86
2023-03-26T06:24:25.883Z,97698.34
2023-03-26T06:28:19.090Z,97661.84
2023-03-26T06:32:36.729Z,97671.39
2023-03-26T06:36:12.219Z,97703.79
2023-03-26T06:40:06.031Z,97727.96
2023-03-26T06:43:59.721Z,97713.04
2023-03-26T06:47:48.659Z,97779.69
2023-03-26T06:51:45.936Z,97844.92
2023-03-26T06:55:12.914Z,97849.77
2023-03-26T07:03:38.623Z,97843.16
2023-03-26T07:07:31.624Z,97860.91
2023-03-26T07:11:27.671Z,97891.65
2023-03-26T07:15:38.020Z,97943.47
2023-03-26T07:19:42.283Z,97909.69
2023-03-26T07:23:35.733Z,97878.99
2023-03-26T07:27:27.510Z,97907.38
2023-03-26T07:31:51.282Z,97921.31
2023-03-26T07:40:36.860Z,97865.09
2023-03-26T07:44:24.926Z,97879.16
2023-03-26T07:48:30.937Z,97884.29
2023-03-26T07:52:28.719Z,97933.59
2023-03-26T07:57:00.667Z,97977.78
2023-03-26T08:01:28.763Z,97943.80
2023-03-26T08:04:56.765Z,97963.14
2023-03-26T08:08:51.688Z,97992.98
2023-03-26T08:12:45.745Z,97983.60
2023-03-26T08:16:34.602Z,97973.58
2023-03-26T08:20:26.725Z,97990.39
2023-03-26T08:23:58.719Z,97954.82
2023-03-26T08:27:50.633Z,97980.04
2023-03-26T08:31:25.580Z,98007.02
2023-03-26T08:35:14.729Z,98026.02
2023-03-26T08:38:39.089Z,98043.17
2023-03-26T08:47:03.906Z,97990.56
2023-03-26T08:51:02.579Z,97952.89
2023-03-26T08:55:03.670Z,97938.39
2023-03-26T08:59:38.667Z,97962.27
2023-03-26T09:03:46.552Z,97936.71
2023-03-26T09:08:00.429Z,97907.63
2023-03-26T09:12:29.685Z,97893.08
2023-03-26T09:16:39.233Z,97894.51
2023-03-26T09:20:49.534Z,97939.11
2023-03-26T09:24:27.485Z,97986.37
2023-03-26T09:28:26.072Z,97972.48
2023-03-26T09:32:02.119Z,97930.74
2023-03-26T09:39:57.056Z,97901.12
2023-03-26T09:43:43.011Z,97907.75
2023-03-26T09:47:30.643Z,97926.21
2023-03-26T09:51:27.656Z,97881.28
2023-03-26T09:55:22.982Z,97898.13
2023-03-26T09:59:10.835Z,97914.08
2023-03-26T10:03:21.295Z,97875.98
2023-03-26T10:07:43.234Z,97865.96
2023-03-26T10:11:39.864Z,97848.71
2023-03-26T10:15:34.812Z,97882.91
2023-03-26T10:19:27.494Z,97930.45
2023-03-26T10:23:19.430Z,97975.26
2023-03-26T10:27:08.521Z,98003.89
2023-03-26T10:31:16.286Z,98017.83
2023-03-26T10:35:04.034Z,98015.99
2023-03-26T10:38:58.471Z,98049.28
2023-03-26T10:43:16.044Z,98082.77
2023-03-26T10:47:17.342Z,98092.14
2023-03-26T10:51:42.445Z,98109.99
2023-03-26T10:55:34.397Z,98115.99
2023-03-26T10:59:28.052Z,98092.42
2023-03-26T11:04:06.662Z,98091.30
2023-03-26T11:07:58.388Z,98101.91
2023-03-26T11:11:55.831Z,98137.44
2023-03-26T11:15:52.841Z,98148.73
2023-03-26T11:19:52.009Z,98155.41
2023-03-26T11:24:04.870Z,98168.21
2023-03-26T11:28:04.675Z,98155.00
2023-03-26T11:32:00.410Z,98134.95
2023-03-26T11:36:16.522Z,98159.13
2023-03-26T11:40:08.558Z,98151.02
2023-03-26T11:44:07.716Z,98115.34
2023-03-26T11:48:00.006Z,98071.64
2023-03-26T11:52:27.677Z,98052.75
2023-03-26T11:56:27.131Z,98033.73
2023-03-26T12:00:10.661Z,98000.06
2023-03-26T12:04:11.856Z,97986.43
2023-03-26T12:08:24.436Z,97972.16
2023-03-26T12:12:19.073Z,97963.52
2023-03-26T12:16:04.393Z,97954.64
2023-03-26T12:20:03.781Z,97948.23
2023-03-26T12:23:51.934Z,97929.04
2023-03-26T12:26:50.413Z,97925.36
2023-03-26T12:30:41.205Z,97930.48
2023-03-26T12:34:39.032Z,97924.60
2023-03-26T12:38:27.195Z,97924.26
2023-03-26T12:44:43.725Z,97925.88
2023-03-26T12:47:55.116Z,97914.70
2023-03-26T12:50:00.298Z,97901.98
2023-03-26T12:54:08.885Z,97908.09
2023-03-26T12:57:55.940Z,97906.15
2023-03-26T13:01:46.953Z,97907.74
2023-03-26T13:09:38.486Z,97892.48
2023-03-26T13:13:46.643Z,97886.20
2023-03-26T13:17:54.753Z,97871.67
2023-03-26T13:21:53.052Z,97862.95
2023-03-26T13:26:03.082Z,97867.21
2023-03-26T13:34:33.739Z,97877.27
2023-03-26T13:38:15.169Z,97877.77
2023-03-26T13:42:01.883Z,97879.72
2023-03-26T13:46:04.207Z,97873.16
2023-03-26T13:49:39.353Z,97870.35
2023-03-26T13:53:30.397Z,97854.52
2023-03-26T13:57:05.049Z,97844.87
2023-03-26T14:00:59.553Z,97840.88
2023-03-26T14:05:22.772Z,97830.24
2023-03-26T14:09:29.656Z,97823.79
2023-03-26T14:18:00.027Z,97807.65
2023-03-26T14:22:21.970Z,97817.44
2023-03-26T14:26:20.955Z,97822.13
2023-03-26T14:30:27.791Z,97813.77
2023-03-26T14:34:47.074Z,97808.67
2023-03-26T14:39:01.414Z,97796.35
2023-03-26T14:43:36.184Z,97780.95
2023-03-26T14:47:59.166Z,97766.70
2023-03-26T14:52:04.725Z,97757.44
2023-03-26T14:56:11.449Z,97758.88
2023-03-26T15:00:20.395Z,97759.15
2023-03-26T15:03:55.970Z,97750.15
2023-03-26T15:08:17.565Z,97746.48
2023-03-26T15:12:24.196Z,97736.19
2023-03-26T15:16:32.939Z,97727.73
2023-03-26T15:20:45.333Z,97717.63
2023-03-26T15:24:56.261Z,97704.65
2023-03-26T15:29:16.164Z,97688.10
2023-03-26T15:33:33.558Z,97672.53
2023-03-26T15:42:59.528Z,97621.18
2023-03-26T15:46:47.876Z,97589.16
2023-03-26T15:50:46.007Z,97572.41
2023-03-26T15:54:40.915Z,97551.70
2023-03-26T15:58:48.909Z,97534.96
2023-03-26T16:02:26.025Z,97518.73
2023-03-26T16:06:25.206Z,97502.23
2023-03-26T16:10:19.974Z,97483.73
2023-03-26T16:14:26.191Z,97465.79
2023-03-26T16:18:42.297Z,97449.77
2023-03-26T16:22:09.970Z,97432.21
2023-03-26T16:25:50.120Z,97410.47
2023-03-26T16:33:45.955Z,97352.17
2023-03-26T16:37:44.615Z,97325.30
2023-03-26T16:42:06.540Z,97303.53
2023-03-26T16:46:24.806Z,97279.24
2023-03-26T16:50:28.831Z,97260.00
2023-03-26T16:54:14.103Z,97247.27
2023-03-26T16:58:38.247Z,97229.67
2023-03-26T17:02:39.086Z,97206.69
2023-03-26T17:06:34.097Z,97198.52
2023-03-26T17:10:54.540Z,97179.69
2023-03-26T17:14:52.563Z,97163.11
2023-03-26T17:19:33.829Z,97143.75
2023-03-26T17:24:15.220Z,97124.05
2023-03-26T17:28:50.482Z,97089.14
2023-03-26T17:33:07.333Z,97059.33
2023-03-26T17:37:19.142Z,97033.96
2023-03-26T17:41:34.762Z,97018.52
2023-03-26T17:45:31.044Z,96990.22
2023-03-26T17:49:29.552Z,96966.28
2023-03-26T17:53:37.052Z,96952.13
2023-03-26T17:57:45.217Z,96928.32
2023-03-26T18:01:17.100Z,96914.92
2023-03-26T18:04:56.138Z,96888.80
2023-03-26T18:10:16.958Z,96762.26
2023-03-26T18:14:20.948Z,96648.72
2023-03-26T18:18:12.793Z,96653.99
2023-03-26T18:21:59.849Z,96659.25
2023-03-26T18:25:42.823Z,96650.70
2023-03-26T18:29:21.855Z,96644.10
2023-03-26T18:33:10.897Z,96634.99
2023-03-26T18:36:56.060Z,96630.25
2023-03-26T18:40:41.825Z,96621.05
2023-03-26T18:46:57.819Z,96620.92
2023-03-26T18:50:38.918Z,96610.65
2023-03-26T18:54:32.840Z,96599.85
2023-03-26T18:58:25.828Z,96599.19
2023-03-26T19:02:19.916Z,96603.80
2023-03-26T19:05:56.022Z,96596.81
2023-03-26T19:09:55.818Z,96586.02
2023-03-26T19:13:42.965Z,96585.92
2023-03-26T19:17:36.927Z,96582.88
2023-03-26T19:21:27.020Z,96589.31
2023-03-26T19:25:07.985Z,96583.70
2023-03-26T19:28:51.860Z,96587.39
2023-03-26T19:32:41.103Z,96587.46
2023-03-26T19:36:50.972Z,96591.69
2023-03-26T19:40:46.875Z,96588.02
2023-03-26T19:48:21.891Z,96583.80
2023-03-26T19:55:52.148Z,96577.58
2023-03-26T19:59:35.922Z,96581.03
2023-03-26T20:03:42.876Z,96583.27
2023-03-26T20:11:00.926Z,96582.55
2023-03-26T20:14:44.938Z,96580.73
2023-03-26T20:18:41.886Z,96580.20
2023-03-26T20:22:23.938Z,96578.48
2023-03-26T20:29:54.952Z,96582.80
2023-03-26T20:33:48.578Z,96585.75
2023-03-26T20:37:29.965Z,96582.61
2023-03-26T20:41:14.025Z,96587.96
2023-03-26T20:48:46.958Z,96585.86
2023-03-26T20:52:28.954Z,96583.90
2023-03-26T21:00:06.074Z,96590.31
2023-03-26T21:03:50.955Z,96585.96
2023-03-26T21:07:45.010Z,96584.44
2023-03-26T21:11:42.962Z,96582.54
2023-03-26T21:15:24.999Z,96580.39
2023-03-26T21:19:08.079Z,96577.23
2023-03-26T21:23:04.012Z,96569.37
2023-03-26T21:30:40.531Z,96569.59
2023-03-26T21:34:18.972Z,96573.31
2023-03-26T21:37:56.993Z,96568.58
2023-03-26T21:41:37.034Z,96574.95
2023-03-26T21:45:21.026Z,96570.79
2023-03-26T21:49:02.191Z,96570.12
2023-03-26T21:52:48.063Z,96566.95
2023-03-26T22:00:55.734Z,96567.86
2023-03-26T22:08:20.134Z,96560.86
2023-03-26T22:12:11.056Z,96560.04
2023-03-26T22:15:53.066Z,96558.67
2023-03-26T22:19:38.055Z,96558.77
2023-03-26T22:23:17.042Z,96557.20
2023-03-26T22:27:04.052Z,96562.91
2023-03-26T22:31:02.119Z,96558.85
2023-03-26T22:34:49.111Z,96563.41
2023-03-26T22:38:30.072Z,96567.16
2023-03-26T22:42:10.067Z,96563.77
2023-03-26T22:45:54.222Z,96564.34
2023-03-26T22:49:36.217Z,96569.13
2023-03-26T22:53:33.110Z,96566.98
2023-03-26T22:57:31.056Z,96566.27
2023-03-26T23:01:15.145Z,96569.95
2023-03-26T23:05:01.215Z,96573.95
2023-03-26T23:08:42.172Z,96569.13
2023-03-26T23:16:08.247Z,96572.86
2023-03-26T23:19:48.117Z,96569.09
2023-03-26T23:23:31.267Z,96564.14
2023-03-26T23:27:10.184Z,96558.95
2023-03-26T23:30:54.288Z,96555.14
2023-03-26T23:34:35.174Z,96555.52
2023-03-26T23:38:19.094Z,96555.02
2023-03-26T23:45:07.483Z,96406.92
2023-03-26T23:48:48.216Z,96334.48
2023-03-26T23:56:37.058Z,96388.02
